sensor_id;sensor_type;location;lat;lon;timestamp;noise_LAeq;noise_LA_min;noise_LA_max;noise_LA01;noise_LA95
69616;Laerm;56822;52.516;4.708;2023-04-03T00:00:01;40.57;37.31;45.34;;
69616;Laerm;56822;52.516;4.708;2023-04-03T00:00:13;41.43;38.13;44.99;;
69616;Laerm;56822;52.516;4.708;2023-04-03T00:00:23;43.53;40.18;47.37;;
69616;Laerm;56822;52.516;4.708;2023-04-03T00:00:34;46.31;41.58;51.09;;
69616;Laerm;56822;52.516;4.708;2023-04-03T00:00:44;46.02;40.79;50.95;;
69616;Laerm;56822;52.516;4.708;2023-04-03T00:00:55;40.99;35.29;45.47;;
69616;Laerm;56822;52.516;4.708;2023-04-03T00:01:05;37.74;33.69;43.45;;
69616;Laerm;56822;52.516;4.708;2023-04-03T00:01:16;37.75;32.93;43.67;;
69616;Laerm;56822;52.516;4.708;2023-04-03T00:01:26;34.31;31.31;39.24;;
69616;Laerm;56822;52.516;4.708;2023-04-03T00:01:36;35.64;31.03;42.60;;
69616;Laerm;56822;52.516;4.708;2023-04-03T00:01:48;42.61;37.13;47.34;;
69616;Laerm;56822;52.516;4.708;2023-04-03T00:01:58;38.69;33.86;43.29;;
69616;Laerm;56822;52.516;4.708;2023-04-03T00:02:08;37.93;33.80;41.05;;
69616;Laerm;56822;52.516;4.708;2023-04-03T00:02:19;42.77;38.29;46.70;;
69616;Laerm;56822;52.516;4.708;2023-04-03T00:02:29;41.91;37.73;45.08;;
69616;Laerm;56822;52.516;4.708;2023-04-03T00:02:39;41.23;37.37;45.83;;
69616;Laerm;56822;52.516;4.708;2023-04-03T00:02:50;44.17;38.17;49.80;;
69616;Laerm;56822;52.516;4.708;2023-04-03T00:03:00;44.00;39.51;49.09;;
69616;Laerm;56822;52.516;4.708;2023-04-03T00:03:11;45.52;40.64;50.39;;
69616;Laerm;56822;52.516;4.708;2023-04-03T00:03:21;48.75;44.63;54.28;;
69616;Laerm;56822;52.516;4.708;2023-04-03T00:03:32;46.28;40.37;51.16;;
69616;Laerm;56822;52.516;4.708;2023-04-03T00:03:42;45.46;40.95;51.78;;
69616;Laerm;56822;52.516;4.708;2023-04-03T00:03:53;45.01;38.59;49.26;;
69616;Laerm;56822;52.516;4.708;2023-04-03T00:04:04;38.85;35.24;44.50;;
69616;Laerm;56822;52.516;4.708;2023-04-03T00:04:14;40.32;35.00;46.98;;
69616;Laerm;56822;52.516;4.708;2023-04-03T00:04:25;43.46;35.94;51.62;;
69616;Laerm;56822;52.516;4.708;2023-04-03T00:04:35;45.40;40.39;49.81;;
69616;Laerm;56822;52.516;4.708;2023-04-03T00:04:46;45.25;41.28;50.75;;
69616;Laerm;56822;52.516;4.708;2023-04-03T00:04:56;40.96;37.20;44.81;;
69616;Laerm;56822;52.516;4.708;2023-04-03T00:05:07;39.89;33.97;44.23;;
69616;Laerm;56822;52.516;4.708;2023-04-03T00:05:17;37.41;34.75;40.24;;
69616;Laerm;56822;52.516;4.708;2023-04-03T00:05:27;39.35;33.59;47.19;;
69616;Laerm;56822;52.516;4.708;2023-04-03T00:05:38;37.59;32.61;43.94;;
69616;Laerm;56822;52.516;4.708;2023-04-03T00:05:48;42.58;34.12;49.02;;
69616;Laerm;56822;52.516;4.708;2023-04-03T00:05:59;41.51;37.85;45.61;;
69616;Laerm;56822;52.516;4.708;2023-04-03T00:06:09;43.74;40.41;49.61;;
69616;Laerm;56822;52.516;4.708;2023-04-03T00:06:21;43.39;38.99;47.27;;
69616;Laerm;56822;52.516;4.708;2023-04-03T00:06:31;43.89;38.94;47.40;;
69616;Laerm;56822;52.516;4.708;2023-04-03T00:06:42;44.20;39.96;47.62;;
69616;Laerm;56822;52.516;4.708;2023-04-03T00:06:52;39.63;34.18;43.96;;
69616;Laerm;56822;52.516;4.708;2023-04-03T00:07:03;38.86;32.28;48.99;;
69616;Laerm;56822;52.516;4.708;2023-04-03T00:07:13;36.56;32.17;41.17;;
69616;Laerm;56822;52.516;4.708;2023-04-03T00:07:24;38.93;35.04;42.88;;
69616;Laerm;56822;52.516;4.708;2023-04-03T00:07:35;41.52;37.04;45.27;;
69616;Laerm;56822;52.516;4.708;2023-04-03T00:07:45;42.49;38.60;46.85;;
69616;Laerm;56822;52.516;4.708;2023-04-03T00:07:56;41.27;36.68;46.09;;
69616;Laerm;56822;52.516;4.708;2023-04-03T00:08:06;40.19;33.75;50.33;;
69616;Laerm;56822;52.516;4.708;2023-04-03T00:08:18;39.42;33.16;46.89;;
69616;Laerm;56822;52.516;4.708;2023-04-03T00:08:28;44.78;41.29;50.17;;
69616;Laerm;56822;52.516;4.708;2023-04-03T00:08:40;46.66;41.72;52.63;;
69616;Laerm;56822;52.516;4.708;2023-04-03T00:08:51;48.00;39.91;54.91;;
69616;Laerm;56822;52.516;4.708;2023-04-03T00:09:01;38.63;32.98;42.11;;
69616;Laerm;56822;52.516;4.708;2023-04-03T00:09:11;33.24;30.47;35.83;;
69616;Laerm;56822;52.516;4.708;2023-04-03T00:09:22;33.32;30.51;36.94;;
69616;Laerm;56822;52.516;4.708;2023-04-03T00:09:32;34.95;31.82;37.86;;
69616;Laerm;56822;52.516;4.708;2023-04-03T00:09:42;37.65;33.57;41.28;;
69616;Laerm;56822;52.516;4.708;2023-04-03T00:09:52;40.60;35.49;45.64;;
69616;Laerm;56822;52.516;4.708;2023-04-03T00:10:03;40.39;36.64;44.78;;
69616;Laerm;56822;52.516;4.708;2023-04-03T00:10:13;39.34;36.02;42.46;;
69616;Laerm;56822;52.516;4.708;2023-04-03T00:10:25;42.31;37.27;47.37;;
69616;Laerm;56822;52.516;4.708;2023-04-03T00:10:36;41.34;36.24;45.92;;
69616;Laerm;56822;52.516;4.708;2023-04-03T00:10:46;39.52;35.94;45.04;;
69616;Laerm;56822;52.516;4.708;2023-04-03T00:10:57;43.81;40.20;47.74;;
69616;Laerm;56822;52.516;4.708;2023-04-03T00:11:07;40.02;35.77;45.96;;
69616;Laerm;56822;52.516;4.708;2023-04-03T00:11:18;38.33;34.57;41.29;;
69616;Laerm;56822;52.516;4.708;2023-04-03T00:11:28;44.15;36.62;49.79;;
69616;Laerm;56822;52.516;4.708;2023-04-03T00:11:38;41.78;37.32;46.69;;
69616;Laerm;56822;52.516;4.708;2023-04-03T00:11:49;42.37;38.10;46.71;;
69616;Laerm;56822;52.516;4.708;2023-04-03T00:11:59;41.82;38.37;45.59;;
69616;Laerm;56822;52.516;4.708;2023-04-03T00:12:10;40.04;35.86;46.63;;
69616;Laerm;56822;52.516;4.708;2023-04-03T00:12:21;38.69;34.94;42.35;;
69616;Laerm;56822;52.516;4.708;2023-04-03T00:12:31;41.73;37.29;45.42;;
69616;Laerm;56822;52.516;4.708;2023-04-03T00:12:41;39.61;36.45;43.58;;
69616;Laerm;56822;52.516;4.708;2023-04-03T00:12:52;42.32;38.91;45.09;;
69616;Laerm;56822;52.516;4.708;2023-04-03T00:13:05;42.61;39.08;46.30;;
69616;Laerm;56822;52.516;4.708;2023-04-03T00:13:15;43.66;38.86;48.45;;
69616;Laerm;56822;52.516;4.708;2023-04-03T00:13:25;44.28;37.43;50.39;;
69616;Laerm;56822;52.516;4.708;2023-04-03T00:13:36;46.72;41.96;50.58;;
69616;Laerm;56822;52.516;4.708;2023-04-03T00:13:47;43.87;37.85;49.02;;
69616;Laerm;56822;52.516;4.708;2023-04-03T00:13:57;41.01;37.98;44.43;;
69616;Laerm;56822;52.516;4.708;2023-04-03T00:14:07;43.99;39.24;48.76;;
69616;Laerm;56822;52.516;4.708;2023-04-03T00:14:17;44.86;38.61;51.88;;
69616;Laerm;56822;52.516;4.708;2023-04-03T00:14:28;38.06;34.61;42.06;;
69616;Laerm;56822;52.516;4.708;2023-04-03T00:14:38;39.96;36.70;45.25;;
69616;Laerm;56822;52.516;4.708;2023-04-03T00:14:48;43.51;37.59;48.81;;
69616;Laerm;56822;52.516;4.708;2023-04-03T00:14:59;41.37;37.43;46.86;;
69616;Laerm;56822;52.516;4.708;2023-04-03T00:15:09;39.29;36.25;42.61;;
69616;Laerm;56822;52.516;4.708;2023-04-03T00:15:19;39.73;35.60;42.90;;
69616;Laerm;56822;52.516;4.708;2023-04-03T00:15:30;38.66;34.83;43.75;;
69616;Laerm;56822;52.516;4.708;2023-04-03T00:15:41;41.56;35.84;45.24;;
69616;Laerm;56822;52.516;4.708;2023-04-03T00:15:51;42.59;37.08;46.69;;
69616;Laerm;56822;52.516;4.708;2023-04-03T00:16:01;41.46;36.53;45.83;;
69616;Laerm;56822;52.516;4.708;2023-04-03T00:16:13;43.04;38.82;49.28;;
69616;Laerm;56822;52.516;4.708;2023-04-03T00:16:23;43.20;35.02;51.13;;
69616;Laerm;56822;52.516;4.708;2023-04-03T00:16:33;35.37;31.41;42.71;;
69616;Laerm;56822;52.516;4.708;2023-04-03T00:16:44;36.21;32.16;40.39;;
69616;Laerm;56822;52.516;4.708;2023-04-03T00:16:54;38.44;34.65;44.38;;
69616;Laerm;56822;52.516;4.708;2023-04-03T00:17:05;38.93;34.33;43.22;;
69616;Laerm;56822;52.516;4.708;2023-04-03T00:17:15;37.21;32.65;41.40;;
69616;Laerm;56822;52.516;4.708;2023-04-03T00:17:25;39.59;34.54;44.82;;
69616;Laerm;56822;52.516;4.708;2023-04-03T00:17:36;38.20;34.34;44.33;;
69616;Laerm;56822;52.516;4.708;2023-04-03T00:17:46;40.29;35.88;43.79;;
69616;Laerm;56822;52.516;4.708;2023-04-03T00:17:56;38.54;33.61;42.77;;
69616;Laerm;56822;52.516;4.708;2023-04-03T00:18:07;38.35;34.80;42.53;;
69616;Laerm;56822;52.516;4.708;2023-04-03T00:18:17;39.06;36.43;43.32;;
69616;Laerm;56822;52.516;4.708;2023-04-03T00:18:27;41.86;37.64;46.83;;
69616;Laerm;56822;52.516;4.708;2023-04-03T00:18:38;43.98;40.43;48.62;;
69616;Laerm;56822;52.516;4.708;2023-04-03T00:18:49;40.03;33.89;48.73;;
69616;Laerm;56822;52.516;4.708;2023-04-03T00:18:59;35.71;32.54;38.71;;
69616;Laerm;56822;52.516;4.708;2023-04-03T00:19:10;38.54;35.74;42.86;;
69616;Laerm;56822;52.516;4.708;2023-04-03T00:19:21;38.67;35.46;43.42;;
69616;Laerm;56822;52.516;4.708;2023-04-03T00:19:32;41.27;35.62;44.24;;
69616;Laerm;56822;52.516;4.708;2023-04-03T00:19:42;44.25;39.36;49.28;;
69616;Laerm;56822;52.516;4.708;2023-04-03T00:19:52;47.34;42.16;52.15;;
69616;Laerm;56822;52.516;4.708;2023-04-03T00:20:03;43.91;35.97;49.74;;
69616;Laerm;56822;52.516;4.708;2023-04-03T00:20:13;45.61;39.76;50.03;;
69616;Laerm;56822;52.516;4.708;2023-04-03T00:20:24;46.56;40.26;54.99;;
69616;Laerm;56822;52.516;4.708;2023-04-03T00:20:34;46.42;42.39;50.86;;
69616;Laerm;56822;52.516;4.708;2023-04-03T00:20:45;40.82;36.83;44.83;;
69616;Laerm;56822;52.516;4.708;2023-04-03T00:20:55;38.79;35.24;43.70;;
69616;Laerm;56822;52.516;4.708;2023-04-03T00:21:06;37.57;31.69;46.02;;
69616;Laerm;56822;52.516;4.708;2023-04-03T00:21:16;39.13;35.52;45.80;;
69616;Laerm;56822;52.516;4.708;2023-04-03T00:21:27;45.59;37.30;54.18;;
69616;Laerm;56822;52.516;4.708;2023-04-03T00:21:37;43.70;37.06;49.63;;
69616;Laerm;56822;52.516;4.708;2023-04-03T00:21:47;40.60;36.65;44.34;;
69616;Laerm;56822;52.516;4.708;2023-04-03T00:21:58;41.95;38.02;45.86;;
69616;Laerm;56822;52.516;4.708;2023-04-03T00:22:08;41.34;38.55;46.61;;
69616;Laerm;56822;52.516;4.708;2023-04-03T00:22:18;41.17;38.26;44.71;;
69616;Laerm;56822;52.516;4.708;2023-04-03T00:22:28;41.41;37.82;45.17;;
69616;Laerm;56822;52.516;4.708;2023-04-03T00:22:39;44.97;40.59;50.25;;
69616;Laerm;56822;52.516;4.708;2023-04-03T00:22:49;45.35;41.51;49.63;;
69616;Laerm;56822;52.516;4.708;2023-04-03T00:23:00;46.02;42.36;49.17;;
69616;Laerm;56822;52.516;4.708;2023-04-03T00:23:10;45.44;39.53;51.88;;
69616;Laerm;56822;52.516;4.708;2023-04-03T00:23:21;40.93;37.03;45.27;;
69616;Laerm;56822;52.516;4.708;2023-04-03T00:23:33;40.55;35.87;45.04;;
69616;Laerm;56822;52.516;4.708;2023-04-03T00:23:44;41.68;37.08;47.18;;
69616;Laerm;56822;52.516;4.708;2023-04-03T00:23:54;43.91;39.14;47.99;;
69616;Laerm;56822;52.516;4.708;2023-04-03T00:24:05;41.91;37.83;46.28;;
69616;Laerm;56822;52.516;4.708;2023-04-03T00:24:15;43.96;40.77;46.77;;
69616;Laerm;56822;52.516;4.708;2023-04-03T00:24:26;41.88;36.74;45.82;;
69616;Laerm;56822;52.516;4.708;2023-04-03T00:24:36;39.48;35.42;43.73;;
69616;Laerm;56822;52.516;4.708;2023-04-03T00:24:46;42.67;39.71;45.51;;
69616;Laerm;56822;52.516;4.708;2023-04-03T00:24:56;44.48;39.77;48.16;;
69616;Laerm;56822;52.516;4.708;2023-04-03T00:25:07;41.84;38.06;46.50;;
69616;Laerm;56822;52.516;4.708;2023-04-03T00:25:17;40.58;36.10;45.42;;
69616;Laerm;56822;52.516;4.708;2023-04-03T00:25:28;46.31;41.43;50.59;;
69616;Laerm;56822;52.516;4.708;2023-04-03T00:25:38;42.98;39.78;47.01;;
69616;Laerm;56822;52.516;4.708;2023-04-03T00:25:49;43.16;39.16;47.75;;
69616;Laerm;56822;52.516;4.708;2023-04-03T00:25:59;43.34;38.63;45.68;;
69616;Laerm;56822;52.516;4.708;2023-04-03T00:26:10;44.84;40.37;49.30;;
69616;Laerm;56822;52.516;4.708;2023-04-03T00:26:20;45.53;41.78;48.58;;
69616;Laerm;56822;52.516;4.708;2023-04-03T00:26:30;46.10;41.61;49.92;;
69616;Laerm;56822;52.516;4.708;2023-04-03T00:26:41;47.07;39.56;51.36;;
69616;Laerm;56822;52.516;4.708;2023-04-03T00:26:51;41.03;37.41;45.03;;
69616;Laerm;56822;52.516;4.708;2023-04-03T00:27:01;39.55;33.55;45.62;;
69616;Laerm;56822;52.516;4.708;2023-04-03T00:27:12;34.34;31.86;37.13;;
69616;Laerm;56822;52.516;4.708;2023-04-03T00:27:22;37.04;32.07;42.63;;
69616;Laerm;56822;52.516;4.708;2023-04-03T00:27:32;43.50;35.77;49.06;;
69616;Laerm;56822;52.516;4.708;2023-04-03T00:27:42;41.11;36.03;45.20;;
69616;Laerm;56822;52.516;4.708;2023-04-03T00:27:53;43.22;37.75;49.70;;
69616;Laerm;56822;52.516;4.708;2023-04-03T00:28:03;39.30;34.49;45.78;;
69616;Laerm;56822;52.516;4.708;2023-04-03T00:28:14;40.01;35.91;47.98;;
69616;Laerm;56822;52.516;4.708;2023-04-03T00:28:24;36.46;32.06;42.76;;
69616;Laerm;56822;52.516;4.708;2023-04-03T00:28:35;36.52;32.10;40.98;;
69616;Laerm;56822;52.516;4.708;2023-04-03T00:28:45;41.13;34.65;46.12;;
69616;Laerm;56822;52.516;4.708;2023-04-03T00:28:56;35.40;31.18;39.68;;
69616;Laerm;56822;52.516;4.708;2023-04-03T00:29:06;31.72;29.93;33.37;;
69616;Laerm;56822;52.516;4.708;2023-04-03T00:29:16;31.83;29.68;35.05;;
69616;Laerm;56822;52.516;4.708;2023-04-03T00:29:26;32.44;29.99;39.37;;
69616;Laerm;56822;52.516;4.708;2023-04-03T00:29:37;36.83;32.11;40.90;;
69616;Laerm;56822;52.516;4.708;2023-04-03T00:29:47;40.83;35.29;44.52;;
69616;Laerm;56822;52.516;4.708;2023-04-03T00:29:58;41.73;37.78;46.76;;
69616;Laerm;56822;52.516;4.708;2023-04-03T00:30:08;43.98;39.61;47.43;;
69616;Laerm;56822;52.516;4.708;2023-04-03T00:30:21;46.65;41.01;52.21;;
69616;Laerm;56822;52.516;4.708;2023-04-03T00:30:31;43.98;41.00;47.41;;
69616;Laerm;56822;52.516;4.708;2023-04-03T00:30:42;44.58;41.10;48.72;;
69616;Laerm;56822;52.516;4.708;2023-04-03T00:30:52;47.18;43.98;50.45;;
69616;Laerm;56822;52.516;4.708;2023-04-03T00:31:02;47.44;41.43;53.07;;
69616;Laerm;56822;52.516;4.708;2023-04-03T00:31:16;43.82;39.91;48.77;;
69616;Laerm;56822;52.516;4.708;2023-04-03T00:31:26;42.49;36.73;48.10;;
69616;Laerm;56822;52.516;4.708;2023-04-03T00:31:36;40.41;35.61;44.35;;
69616;Laerm;56822;52.516;4.708;2023-04-03T00:31:47;41.48;37.01;47.42;;
69616;Laerm;56822;52.516;4.708;2023-04-03T00:31:57;38.50;35.24;43.47;;
69616;Laerm;56822;52.516;4.708;2023-04-03T00:32:07;41.58;36.35;47.26;;
69616;Laerm;56822;52.516;4.708;2023-04-03T00:32:17;34.96;31.18;41.21;;
69616;Laerm;56822;52.516;4.708;2023-04-03T00:32:28;32.37;30.25;37.87;;
69616;Laerm;56822;52.516;4.708;2023-04-03T00:32:38;33.40;30.12;39.41;;
69616;Laerm;56822;52.516;4.708;2023-04-03T00:32:49;35.20;32.41;41.08;;
69616;Laerm;56822;52.516;4.708;2023-04-03T00:32:59;41.62;35.04;45.34;;
69616;Laerm;56822;52.516;4.708;2023-04-03T00:33:13;46.13;39.40;50.85;;
69616;Laerm;56822;52.516;4.708;2023-04-03T00:33:24;41.01;36.43;49.66;;
69616;Laerm;56822;52.516;4.708;2023-04-03T00:33:34;42.30;36.43;46.22;;
69616;Laerm;56822;52.516;4.708;2023-04-03T00:33:44;40.46;36.68;47.00;;
69616;Laerm;56822;52.516;4.708;2023-04-03T00:33:55;37.87;35.07;41.89;;
69616;Laerm;56822;52.516;4.708;2023-04-03T00:34:05;42.29;36.87;46.33;;
69616;Laerm;56822;52.516;4.708;2023-04-03T00:34:15;40.48;35.94;45.09;;
69616;Laerm;56822;52.516;4.708;2023-04-03T00:34:26;40.64;36.15;47.49;;
69616;Laerm;56822;52.516;4.708;2023-04-03T00:34:36;44.12;39.04;48.63;;
69616;Laerm;56822;52.516;4.708;2023-04-03T00:34:46;39.58;36.09;44.95;;
69616;Laerm;56822;52.516;4.708;2023-04-03T00:34:56;37.60;32.17;43.12;;
69616;Laerm;56822;52.516;4.708;2023-04-03T00:35:07;37.21;32.48;42.00;;
69616;Laerm;56822;52.516;4.708;2023-04-03T00:35:18;36.65;31.78;40.68;;
69616;Laerm;56822;52.516;4.708;2023-04-03T00:35:28;39.01;34.24;45.71;;
69616;Laerm;56822;52.516;4.708;2023-04-03T00:35:39;36.03;31.79;39.63;;
69616;Laerm;56822;52.516;4.708;2023-04-03T00:35:50;39.00;35.39;42.60;;
69616;Laerm;56822;52.516;4.708;2023-04-03T00:36:05;38.40;34.32;42.95;;
69616;Laerm;56822;52.516;4.708;2023-04-03T00:36:15;40.54;35.12;45.58;;
69616;Laerm;56822;52.516;4.708;2023-04-03T00:36:25;40.83;34.09;46.68;;
69616;Laerm;56822;52.516;4.708;2023-04-03T00:36:36;39.28;34.73;43.47;;
69616;Laerm;56822;52.516;4.708;2023-04-03T00:36:46;38.87;34.50;44.00;;
69616;Laerm;56822;52.516;4.708;2023-04-03T00:36:56;39.71;35.53;44.09;;
69616;Laerm;56822;52.516;4.708;2023-04-03T00:37:07;41.58;33.87;50.23;;
69616;Laerm;56822;52.516;4.708;2023-04-03T00:37:17;37.22;33.64;40.27;;
69616;Laerm;56822;52.516;4.708;2023-04-03T00:37:27;37.18;34.26;41.58;;
69616;Laerm;56822;52.516;4.708;2023-04-03T00:37:38;39.87;36.48;43.02;;
69616;Laerm;56822;52.516;4.708;2023-04-03T00:37:50;38.58;33.67;49.58;;
69616;Laerm;56822;52.516;4.708;2023-04-03T00:38:00;43.43;36.62;56.23;;
69616;Laerm;56822;52.516;4.708;2023-04-03T00:38:11;45.01;38.10;49.54;;
69616;Laerm;56822;52.516;4.708;2023-04-03T00:38:21;43.75;35.18;50.89;;
69616;Laerm;56822;52.516;4.708;2023-04-03T00:38:31;40.96;34.89;46.20;;
69616;Laerm;56822;52.516;4.708;2023-04-03T00:38:42;39.01;35.49;42.69;;
69616;Laerm;56822;52.516;4.708;2023-04-03T00:38:52;42.98;38.31;46.70;;
69616;Laerm;56822;52.516;4.708;2023-04-03T00:39:02;46.11;42.67;48.66;;
69616;Laerm;56822;52.516;4.708;2023-04-03T00:39:13;43.51;37.98;47.85;;
69616;Laerm;56822;52.516;4.708;2023-04-03T00:39:23;41.31;37.33;46.44;;
69616;Laerm;56822;52.516;4.708;2023-04-03T00:39:33;41.95;36.22;47.20;;
69616;Laerm;56822;52.516;4.708;2023-04-03T00:39:43;39.51;33.93;46.13;;
69616;Laerm;56822;52.516;4.708;2023-04-03T00:39:54;40.63;35.76;46.06;;
69616;Laerm;56822;52.516;4.708;2023-04-03T00:40:04;43.96;36.04;48.02;;
69616;Laerm;56822;52.516;4.708;2023-04-03T00:40:15;38.65;34.19;42.31;;
69616;Laerm;56822;52.516;4.708;2023-04-03T00:40:26;33.73;30.20;39.62;;
69616;Laerm;56822;52.516;4.708;2023-04-03T00:40:38;34.99;32.32;39.41;;
69616;Laerm;56822;52.516;4.708;2023-04-03T00:40:48;37.45;30.09;42.58;;
69616;Laerm;56822;52.516;4.708;2023-04-03T00:40:59;34.33;31.37;38.72;;
69616;Laerm;56822;52.516;4.708;2023-04-03T00:41:09;34.16;31.33;37.74;;
69616;Laerm;56822;52.516;4.708;2023-04-03T00:41:19;34.96;32.09;40.63;;
69616;Laerm;56822;52.516;4.708;2023-04-03T00:41:30;35.52;32.50;38.28;;
69616;Laerm;56822;52.516;4.708;2023-04-03T00:41:40;37.26;33.68;42.38;;
69616;Laerm;56822;52.516;4.708;2023-04-03T00:41:50;35.14;31.05;40.51;;
69616;Laerm;56822;52.516;4.708;2023-04-03T00:42:00;33.68;30.62;38.21;;
69616;Laerm;56822;52.516;4.708;2023-04-03T00:42:11;37.00;33.33;41.62;;
69616;Laerm;56822;52.516;4.708;2023-04-03T00:42:21;36.65;31.75;43.43;;
69616;Laerm;56822;52.516;4.708;2023-04-03T00:42:31;35.05;31.51;38.71;;
69616;Laerm;56822;52.516;4.708;2023-04-03T00:42:42;40.73;34.86;48.01;;
69616;Laerm;56822;52.516;4.708;2023-04-03T00:42:57;45.39;40.19;50.07;;
69616;Laerm;56822;52.516;4.708;2023-04-03T00:43:12;38.56;30.21;52.41;;
69616;Laerm;56822;52.516;4.708;2023-04-03T00:43:24;35.29;31.25;41.63;;
69616;Laerm;56822;52.516;4.708;2023-04-03T00:43:34;37.56;31.85;44.07;;
69616;Laerm;56822;52.516;4.708;2023-04-03T00:43:45;36.89;32.93;40.70;;
69616;Laerm;56822;52.516;4.708;2023-04-03T00:43:55;38.40;34.88;42.60;;
69616;Laerm;56822;52.516;4.708;2023-04-03T00:45:31;38.16;31.91;42.61;;
69616;Laerm;56822;52.516;4.708;2023-04-03T00:45:43;37.40;32.72;42.08;;
69616;Laerm;56822;52.516;4.708;2023-04-03T00:45:54;41.40;36.86;48.41;;
69616;Laerm;56822;52.516;4.708;2023-04-03T00:46:05;39.31;32.79;45.73;;
69616;Laerm;56822;52.516;4.708;2023-04-03T00:46:15;35.21;31.78;39.40;;
69616;Laerm;56822;52.516;4.708;2023-04-03T00:46:26;36.29;32.47;39.43;;
69616;Laerm;56822;52.516;4.708;2023-04-03T00:46:36;40.20;35.48;44.26;;
69616;Laerm;56822;52.516;4.708;2023-04-03T00:46:46;41.96;38.00;47.38;;
69616;Laerm;56822;52.516;4.708;2023-04-03T00:46:56;40.68;33.45;47.81;;
69616;Laerm;56822;52.516;4.708;2023-04-03T00:47:08;36.19;33.13;40.45;;
69616;Laerm;56822;52.516;4.708;2023-04-03T00:47:19;43.26;35.05;50.74;;
69616;Laerm;56822;52.516;4.708;2023-04-03T00:47:30;45.34;37.07;50.03;;
69616;Laerm;56822;52.516;4.708;2023-04-03T00:47:40;35.04;32.42;39.38;;
69616;Laerm;56822;52.516;4.708;2023-04-03T00:47:51;38.05;32.08;43.43;;
69616;Laerm;56822;52.516;4.708;2023-04-03T00:48:03;40.35;34.81;47.89;;
69616;Laerm;56822;52.516;4.708;2023-04-03T00:48:17;39.28;35.68;44.10;;
69616;Laerm;56822;52.516;4.708;2023-04-03T00:48:32;40.89;36.12;44.78;;
69616;Laerm;56822;52.516;4.708;2023-04-03T00:48:45;40.06;35.73;44.05;;
69616;Laerm;56822;52.516;4.708;2023-04-03T00:48:56;42.76;37.82;47.80;;
69616;Laerm;56822;52.516;4.708;2023-04-03T00:49:06;40.27;36.29;45.38;;
69616;Laerm;56822;52.516;4.708;2023-04-03T00:49:16;37.13;33.32;40.17;;
69616;Laerm;56822;52.516;4.708;2023-04-03T00:49:27;40.63;35.44;46.11;;
69616;Laerm;56822;52.516;4.708;2023-04-03T00:49:38;40.35;35.49;45.41;;
69616;Laerm;56822;52.516;4.708;2023-04-03T00:49:48;39.03;33.37;46.32;;
69616;Laerm;56822;52.516;4.708;2023-04-03T00:49:59;36.32;31.26;45.47;;
69616;Laerm;56822;52.516;4.708;2023-04-03T00:50:10;34.65;31.53;37.52;;
69616;Laerm;56822;52.516;4.708;2023-04-03T00:50:20;39.65;34.98;45.12;;
69616;Laerm;56822;52.516;4.708;2023-04-03T00:50:31;43.35;38.29;48.54;;
69616;Laerm;56822;52.516;4.708;2023-04-03T00:50:43;35.57;31.51;40.44;;
69616;Laerm;56822;52.516;4.708;2023-04-03T00:50:54;34.06;30.54;44.26;;
69616;Laerm;56822;52.516;4.708;2023-04-03T00:51:06;38.14;30.39;45.32;;
69616;Laerm;56822;52.516;4.708;2023-04-03T00:51:21;36.72;31.15;47.32;;
69616;Laerm;56822;52.516;4.708;2023-04-03T00:51:32;40.44;32.16;53.65;;
69616;Laerm;56822;52.516;4.708;2023-04-03T00:51:43;37.90;32.74;45.33;;
69616;Laerm;56822;52.516;4.708;2023-04-03T00:51:53;37.86;32.67;45.72;;
69616;Laerm;56822;52.516;4.708;2023-04-03T00:52:08;41.31;35.44;46.44;;
69616;Laerm;56822;52.516;4.708;2023-04-03T00:52:21;41.77;36.67;48.23;;
69616;Laerm;56822;52.516;4.708;2023-04-03T00:52:33;35.68;30.95;42.19;;
69616;Laerm;56822;52.516;4.708;2023-04-03T00:52:43;35.58;30.95;41.27;;
69616;Laerm;56822;52.516;4.708;2023-04-03T00:52:56;38.48;31.64;44.24;;
69616;Laerm;56822;52.516;4.708;2023-04-03T00:53:08;36.40;32.69;41.59;;
69616;Laerm;56822;52.516;4.708;2023-04-03T00:53:22;36.71;31.11;49.54;;
69616;Laerm;56822;52.516;4.708;2023-04-03T00:53:36;39.68;31.48;51.70;;
69616;Laerm;56822;52.516;4.708;2023-04-03T00:53:48;40.50;34.34;49.04;;
69616;Laerm;56822;52.516;4.708;2023-04-03T00:54:00;40.91;35.77;47.40;;
69616;Laerm;56822;52.516;4.708;2023-04-03T00:54:11;40.96;34.04;45.60;;
69616;Laerm;56822;52.516;4.708;2023-04-03T00:54:22;42.42;38.54;47.44;;
69616;Laerm;56822;52.516;4.708;2023-04-03T00:54:32;39.59;33.80;44.06;;
69616;Laerm;56822;52.516;4.708;2023-04-03T00:54:45;34.65;30.79;39.76;;
69616;Laerm;56822;52.516;4.708;2023-04-03T00:55:00;38.53;33.43;44.67;;
69616;Laerm;56822;52.516;4.708;2023-04-03T00:55:12;42.56;37.85;55.45;;
69616;Laerm;56822;52.516;4.708;2023-04-03T00:55:24;46.55;40.90;52.40;;
69616;Laerm;56822;52.516;4.708;2023-04-03T00:55:35;46.84;40.10;52.42;;
69616;Laerm;56822;52.516;4.708;2023-04-03T00:55:46;45.32;38.76;51.78;;
69616;Laerm;56822;52.516;4.708;2023-04-03T00:55:57;42.16;36.62;50.98;;
69616;Laerm;56822;52.516;4.708;2023-04-03T00:56:09;45.64;41.24;51.92;;
69616;Laerm;56822;52.516;4.708;2023-04-03T00:56:21;48.18;41.02;54.33;;
69616;Laerm;56822;52.516;4.708;2023-04-03T00:56:32;49.09;44.71;54.26;;
69616;Laerm;56822;52.516;4.708;2023-04-03T00:56:42;42.54;37.10;46.76;;
69616;Laerm;56822;52.516;4.708;2023-04-03T00:56:53;39.63;36.02;44.07;;
69616;Laerm;56822;52.516;4.708;2023-04-03T00:57:04;42.82;37.85;46.85;;
69616;Laerm;56822;52.516;4.708;2023-04-03T00:57:15;44.10;38.22;47.82;;
69616;Laerm;56822;52.516;4.708;2023-04-03T00:57:26;43.86;40.05;48.20;;
69616;Laerm;56822;52.516;4.708;2023-04-03T00:57:37;40.99;34.87;47.18;;
69616;Laerm;56822;52.516;4.708;2023-04-03T00:57:48;37.47;34.12;44.61;;
69616;Laerm;56822;52.516;4.708;2023-04-03T00:57:59;37.80;33.45;45.88;;
69616;Laerm;56822;52.516;4.708;2023-04-03T00:58:10;39.88;36.03;43.31;;
69616;Laerm;56822;52.516;4.708;2023-04-03T00:58:23;42.78;39.08;47.12;;
69616;Laerm;56822;52.516;4.708;2023-04-03T00:58:39;46.57;40.01;52.83;;
69616;Laerm;56822;52.516;4.708;2023-04-03T00:58:51;48.97;42.05;62.90;;
69616;Laerm;56822;52.516;4.708;2023-04-03T00:59:06;45.73;39.45;50.90;;
69616;Laerm;56822;52.516;4.708;2023-04-03T00:59:22;46.04;39.14;51.96;;
69616;Laerm;56822;52.516;4.708;2023-04-03T00:59:37;45.95;42.09;50.10;;
69616;Laerm;56822;52.516;4.708;2023-04-03T00:59:50;45.63;40.00;49.99;;
69616;Laerm;56822;52.516;4.708;2023-04-03T01:00:05;47.75;43.40;51.58;;
69616;Laerm;56822;52.516;4.708;2023-04-03T01:00:18;48.37;38.89;52.53;;
69616;Laerm;56822;52.516;4.708;2023-04-03T01:00:29;39.67;35.82;43.00;;
69616;Laerm;56822;52.516;4.708;2023-04-03T01:00:40;42.57;36.33;49.46;;
69616;Laerm;56822;52.516;4.708;2023-04-03T01:00:53;42.62;36.61;47.52;;
69616;Laerm;56822;52.516;4.708;2023-04-03T01:01:08;39.74;33.67;47.00;;
69616;Laerm;56822;52.516;4.708;2023-04-03T01:01:22;43.41;32.93;51.42;;
69616;Laerm;56822;52.516;4.708;2023-04-03T01:01:34;32.28;29.60;36.79;;
69616;Laerm;56822;52.516;4.708;2023-04-03T01:01:44;31.29;29.00;38.65;;
69616;Laerm;56822;52.516;4.708;2023-04-03T01:01:55;38.10;30.56;48.66;;
69616;Laerm;56822;52.516;4.708;2023-04-03T01:02:06;44.01;35.66;51.13;;
69616;Laerm;56822;52.516;4.708;2023-04-03T01:02:17;34.40;31.12;38.53;;